Nearby METAR Reports

 

KTAN - Taunton, Massachusetts, USA
Distance from station: W 5mi, 8km
Updated: Sat, 15-May-2021 12:52am EDT
Clear
Clear
 Wind from calm
Wind: Calm
Temperature: 48°F , 9°C
Dew Point: 43°F , 6°C
Humidity: 82%
Barometer: 30.15 inHg , 1021 hPa
Clouds: Clear
Visibility: 10 miles , 16 km
2021/05/15 04:52 KTAN 150452Z AUTO 00000KT 10SM CLR 09/06 A3015 RMK AO2 SLP210 T00890056 402500022 $
KPYM - Plymouth, Massachusetts, USA
Distance from station: ENE 10mi, 16km
Updated: Sat, 15-May-2021 1:52am EDT
Clear
Clear
 Wind from calm
Wind: Calm
Temperature: 48°F , 9°C
Dew Point: 39°F , 4°C
Humidity: 71%
Barometer: 30.15 inHg , 1021 hPa
Clouds: Clear
Visibility: 10 miles , 16 km
2021/05/15 05:52 KPYM 150552Z AUTO 00000KT 10SM CLR 09/04 A3015 RMK AO2 SLP208 T00890044 10172 20089 5
 
KEWB - New Bedford, Massachusetts, USA
Distance from station: S 14mi, 23km
Updated: Sat, 15-May-2021 12:53am EDT
Clear
Clear
 Wind from SW
Wind: SW 5 mph , 7 km/h
Temperature: 52°F , 11°C
Dew Point: 41°F , 5°C
Humidity: 67%
Barometer: 30.15 inHg , 1021 hPa
Clouds: Clear
Visibility: 10 miles , 16 km
2021/05/15 04:53 KEWB 150453Z AUTO 23004KT 10SM CLR 11/05 A3015 RMK AO2 SLP211 T01110050 402330044
KGHG - Marshfield, Massachusetts, USA
Distance from station: NE 20mi, 31km
Updated: Sat, 15-May-2021 1:35am EDT
Partly cloudy
Partly cloudy
 Wind from W
Wind: W 5 mph , 7 km/h
Temperature: 55°F , 13°C
Dew Point: 41°F , 5°C
Humidity: 59%
Barometer: 30.14 inHg , 1020.7 hPa
Clouds: Partly cloudy
Visibility: 10 miles , 16 km
Cloud details: Partly cloudy 11000 ft
2021/05/15 05:35 KGHG 150535Z AUTO 26004KT 10SM SCT110 13/05 A3014 RMK AO2 PWINO TSNO
 
KOWD - Norwood, Massachusetts, USA
Distance from station: NNW 24mi, 39km
Updated: Sat, 15-May-2021 12:53am EDT
Clear
Clear
 Wind from calm
Wind: Calm
Temperature: 52°F , 11°C
Dew Point: 45°F , 7°C
Humidity: 77%
Barometer: 30.15 inHg , 1021 hPa
Clouds: Clear
Visibility: 10 miles , 16 km
2021/05/15 04:53 KOWD 150453Z AUTO 00000KT 10SM CLR 11/07 A3015 RMK AO2 SLP209 T01060067 402500033
KMQE - East Milton, Massachusetts, USA
Distance from station: NNW 25mi, 40km
Updated: Sat, 15-May-2021 1:51am EDT

 Wind from NW
Wind: NW 10 mph , 17 km/h
Temperature: 55°F , 13°C
Dew Point: 37°F , 3°C
Humidity: 51%
Barometer: 30.15 inHg , 1021 hPa
2021/05/15 05:51 KMQE 150551Z AUTO 32009KT 13/03 A3015 RMK AO1 SLP218 T01330033 10178 20133 53003
 
KFMH - Falmouth/Otis Ab, Massachusetts, USA
Distance from station: SE 27mi, 44km
Updated: Sat, 15-May-2021 1:45am EDT
Clear
Clear
 Wind from WSW
Wind: WSW 7 mph , 11 km/h
Temperature: 54°F , 12°C
Dew Point: 43°F , 6°C
Humidity: 67%
Barometer: 30.16 inHg , 1021.3 hPa
Clouds: Clear
Visibility: 10 miles , 16 km
2021/05/15 05:45 KFMH 150545Z 25006KT 10SM CLR 12/06 A3016
KPVD - Providence/Green, Rhode Island, USA
Distance from station: WSW 29mi, 47km
Updated: Sat, 15-May-2021 1:51am EDT
Clear
Clear
 Wind from W
Wind: W 8 mph , 13 km/h
Temperature: 59°F , 15°C
Dew Point: 36°F , 2°C
Humidity: 42%
Barometer: 30.16 inHg , 1021.3 hPa
Clouds: Clear
Visibility: 10 miles , 16 km
2021/05/15 05:51 KPVD 150551Z AUTO 27007KT 10SM CLR 15/02 A3016 RMK AO2 SLP213 T01500022 10189 20150 56000
 
KSFZ - Pawtucket, Rhode Island, USA
Distance from station: W 30mi, 48km
Updated: Sat, 15-May-2021 12:56am EDT
Clear
Clear
 Wind from SW
Wind: SW 5 mph , 7 km/h
Temperature: 54°F , 12°C
Dew Point: 39°F , 4°C
Humidity: 58%
Barometer: 30.17 inHg , 1021.7 hPa
Clouds: Clear
Visibility: 10 miles , 16 km
2021/05/15 04:56 KSFZ 150456Z AUTO 23004KT 10SM CLR 12/04 A3017 RMK AO2 SLP222 T01220044 402440061 $
KUUU - Newport, Rhode Island, USA
Distance from station: SW 31mi, 50km
Updated: Sat, 15-May-2021 12:53am EDT
Clear
Clear
 Wind from varies
Wind: varies 3 mph , 6 km/h
Temperature: 55°F , 13°C
Dew Point: 39°F , 4°C
Humidity: 55%
Barometer: 30.17 inHg , 1021.7 hPa
Clouds: Clear
Visibility: 10 miles , 16 km
2021/05/15 04:53 KUUU 150453Z AUTO VRB03KT 10SM CLR 13/04 A3017 RMK AO2 SLP213 T01280039 402170044
 
KOQU - N. Kingston/Quon, Rhode Island, USA
Distance from station: SW 32mi, 52km
Updated: Fri, 14-May-2021 10:50pm EDT
NOT Current
Clear
Clear
 Wind from W
Wind: W 14 mph , 22 km/h
Temperature: 61°F , 16°C
Dew Point: 36°F , 2°C
Humidity: 39%
Barometer: 30.17 inHg , 1021.7 hPa
Clouds: Clear
Visibility: 10 miles , 16 km
2021/05/15 02:50 KOQU 150250Z 26012KT 10SM SKC 16/02 A3017 RMK LAST
KBOS - Boston, Massachusetts, USA
Distance from station: N 33mi, 54km
Updated: Sat, 15-May-2021 12:54am EDT
Mostly cloudy
Mostly cloudy
 Wind from W
Wind: W 8 mph , 13 km/h
Temperature: 64°F , 18°C
Dew Point: 37°F , 3°C
Humidity: 37%
Barometer: 30.15 inHg , 1021 hPa
Clouds: Mostly cloudy
Visibility: 10 miles , 16 km
Cloud details: Mostly cloudy 11000 ft
2021/05/15 04:54 KBOS 150454Z 28007KT 10SM BKN110 18/03 A3015 RMK AO2 SLP210 T01830028 402500133
 
KHYA - Hyannis, Massachusetts, USA
Distance from station: ESE 37mi, 59km
Updated: Sat, 15-May-2021 12:56am EDT
Clear
Clear
 Wind from SW
Wind: SW 10 mph , 17 km/h
Temperature: 55°F , 13°C
Dew Point: 39°F , 4°C
Humidity: 55%
Barometer: 30.14 inHg , 1020.7 hPa
Clouds: Clear
Visibility: 10 miles , 16 km
2021/05/15 04:56 KHYA 150456Z AUTO 23009KT 10SM CLR 13/04 A3014 RMK AO2 SLP208 T01330044 402280067
KMVY - Marthas Vineyard, Massachusetts, USA
Distance from station: SSE 37mi, 60km
Updated: Fri, 14-May-2021 11:53pm EDT
NOT Current
Clear
Clear
 Wind from SW
Wind: SW 7 mph , 11 km/h
Temperature: 57°F , 14°C
Dew Point: 39°F , 4°C
Humidity: 51%
Barometer: 30.18 inHg , 1022 hPa
Clouds: Clear
Visibility: 10 miles , 16 km
2021/05/15 03:53 KMVY 150353Z AUTO 23006KT 10SM CLR 14/04 A3018 RMK AO2 SLP220 T01390039
 
KPVC - Provincetown, Massachusetts, USA
Distance from station: ENE 38mi, 61km
Updated: Sat, 15-May-2021 12:56am EDT
Few Clouds
Few Clouds
 Wind from SW
Wind: SW 7 mph , 11 km/h
Temperature: 54°F , 12°C
Dew Point: 46°F , 8°C
Humidity: 77%
Barometer: 30.15 inHg , 1021 hPa
Clouds: Few Clouds
Visibility: 10 miles , 16 km
Cloud details: Few Clouds 10000 ft
2021/05/15 04:56 KPVC 150456Z AUTO 23006KT 10SM FEW100 12/08 A3015 RMK AO2 SLP209 T01170078 402220089
KBED - Bedford, Massachusetts, USA
Distance from station: NNW 44mi, 72km
Updated: Sat, 15-May-2021 1:51am EDT
Partly cloudy
Partly cloudy
 Wind from calm
Wind: Calm
Temperature: 52°F , 11°C
Dew Point: 43°F , 6°C
Humidity: 72%
Barometer: 30.14 inHg , 1020.7 hPa
Clouds: Partly cloudy
Visibility: 10 miles , 16 km
Cloud details: Partly cloudy 11000 ft
2021/05/15 05:51 KBED 150551Z AUTO 00000KT 10SM SCT110 11/06 A3014 RMK AO2 SLP219 T01060056 10200 20094 50004
 
KBVY - Beverly, Massachusetts, USA
Distance from station: 0 48mi, 77km
Updated: Sat, 15-May-2021 12:53am EDT
Clear
Clear
 Wind from W
Wind: W 5 mph , 7 km/h
Temperature: 55°F , 13°C
Dew Point: 43°F , 6°C
Humidity: 63%
Barometer: 30.13 inHg , 1020.3 hPa
Clouds: Clear
Visibility: 10 miles , 16 km
2021/05/15 04:53 KBVY 150453Z AUTO 26004KT 10SM CLR 13/06 A3013 RMK AO2 SLP199 T01330061 402390056
KCQX - Chatham, Massachusetts, USA
Distance from station: ESE 49mi, 80km
Updated: Sat, 15-May-2021 1:52am EDT
Clear
Clear
 Wind from WSW
Wind: WSW 6 mph , 9 km/h
Temperature: 57°F , 14°C
Dew Point: 45°F , 7°C
Humidity: 63%
Barometer: 30.16 inHg , 1021.3 hPa
Clouds: Clear
Visibility: 10 miles , 16 km
2021/05/15 05:52 KCQX 150552Z AUTO 24005KT 10SM CLR 14/07 A3016 RMK AO2 SLP215 T01390067 10150 20133 58004